Time;durP1;ratioP1;P1;durP2;ratioP2;P2;SDS_P1;SDS_P2;PMS_P1;PMS_P2;Temp;Humidity;BMP_temperature;BMP_pressure;BME280_temperature;BME280_humidity;BME280_pressure;Samples;Min_cycle;Max_cycle;Signal;HPM_P1;HPM_P2
2023/10/20 00:00:51;;;;;;;74.88;47.05;;;;;;;13.23;91.11;95664.16;5070205;28;20045;-70
2023/10/20 00:03:17;;;;;;;96.25;50.95;;;;;;;13.14;90.90;95650.66;5056053;28;20034;-70
2023/10/20 00:05:42;;;;;;;73.63;46.90;;;;;;;13.18;90.58;95663.19;5046623;28;20040;-71
2023/10/20 00:08:08;;;;;;;96.00;51.05;;;;;;;13.13;90.84;95649.88;5075520;28;20024;-69
2023/10/20 00:10:36;;;;;;;82.30;48.88;;;;;;;13.13;90.47;95659.88;5074806;28;20032;-71
2023/10/20 00:13:05;;;;;;;115.68;54.80;;;;;;;13.13;90.31;95662.59;5093048;28;20386;-70
2023/10/20 00:15:30;;;;;;;84.47;46.95;;;;;;;13.06;90.85;95654.19;5067477;28;20170;-71
2023/10/20 00:17:56;;;;;;;85.18;48.67;;;;;;;12.97;90.70;95656.09;5075197;28;20047;-70
2023/10/20 00:20:21;;;;;;;68.15;42.55;;;;;;;12.93;90.20;95652.41;5092729;28;20032;-70
2023/10/20 00:22:46;;;;;;;63.55;42.67;;;;;;;12.98;90.65;95658.44;5058217;28;20483;-72
2023/10/20 00:25:12;;;;;;;59.38;40.45;;;;;;;12.90;90.57;95655.78;5074690;28;20056;-73
2023/10/20 00:27:38;;;;;;;86.70;48.15;;;;;;;12.96;90.77;95657.19;5058342;28;20020;-73
2023/10/20 00:30:07;;;;;;;60.00;40.90;;;;;;;12.87;90.79;95640.19;5074377;28;20426;-73
2023/10/20 00:32:33;;;;;;;56.08;38.95;;;;;;;12.96;90.90;95640.97;5057634;28;20464;-73
2023/10/20 00:35:03;;;;;;;57.80;40.53;;;;;;;12.96;90.57;95636.38;5055039;28;20464;-73
2023/10/20 00:37:30;;;;;;;62.13;41.78;;;;;;;12.90;90.27;95631.47;5084483;28;20036;-72
2023/10/20 00:39:56;;;;;;;52.05;38.80;;;;;;;12.93;90.79;95638.91;5058045;28;20110;-72
2023/10/20 00:42:21;;;;;;;49.80;37.08;;;;;;;12.91;90.60;95625.72;5074062;28;20127;-73
2023/10/20 00:44:47;;;;;;;51.35;38.05;;;;;;;12.91;90.01;95624.94;5074618;28;20024;-71
2023/10/20 00:47:12;;;;;;;47.25;36.22;;;;;;;12.92;90.41;95615.72;5074724;28;20031;-72
2023/10/20 00:49:39;;;;;;;54.05;38.28;;;;;;;12.89;90.42;95616.34;5074520;28;20028;-72
2023/10/20 00:52:06;;;;;;;51.92;38.10;;;;;;;12.93;89.82;95620.00;5057320;28;20020;-72
2023/10/20 00:54:32;;;;;;;56.92;40.00;;;;;;;12.89;89.79;95610.97;5057667;28;20020;-73
2023/10/20 00:56:57;;;;;;;48.83;36.63;;;;;;;12.85;90.08;95596.53;5074212;28;20414;-73
2023/10/20 00:59:22;;;;;;;52.53;37.55;;;;;;;12.79;90.26;95585.09;5057110;28;20466;-72
2023/10/20 01:01:48;;;;;;;64.15;41.65;;;;;;;12.81;89.90;95592.88;5071231;28;20051;-73
2023/10/20 01:04:13;;;;;;;52.83;37.70;;;;;;;12.82;89.60;95587.16;5045520;28;20032;-72
2023/10/20 01:06:39;;;;;;;54.72;37.63;;;;;;;12.77;90.06;95567.63;5073971;28;20106;-73
2023/10/20 01:09:05;;;;;;;48.50;33.15;;;;;;;12.83;89.75;95587.94;5074289;28;20383;-71
2023/10/20 01:11:31;;;;;;;42.60;30.60;;;;;;;12.84;89.73;95578.72;5073559;28;20442;-72
2023/10/20 01:13:56;;;;;;;42.95;32.25;;;;;;;12.85;89.67;95577.59;5057427;28;20473;-73
2023/10/20 01:16:23;;;;;;;41.25;32.38;;;;;;;12.85;89.66;95577.59;5057349;28;20032;-72
2023/10/20 01:18:49;;;;;;;36.58;29.95;;;;;;;12.69;89.90;95544.94;5057478;28;20024;-73
2023/10/20 01:21:15;;;;;;;41.95;31.70;;;;;;;12.87;89.53;95576.19;5056782;28;20028;-72
2023/10/20 01:23:40;;;;;;;37.50;29.83;;;;;;;12.94;89.80;95575.66;5073731;28;20437;-71
2023/10/20 01:26:06;;;;;;;35.78;29.67;;;;;;;12.95;89.39;95572.63;5091912;28;20028;-71
2023/10/20 01:28:31;;;;;;;38.38;29.90;;;;;;;12.98;89.30;95585.50;5092094;28;20089;-71
2023/10/20 01:30:57;;;;;;;40.92;31.08;;;;;;;12.94;88.83;95581.88;5091458;28;20040;-73
2023/10/20 01:33:22;;;;;;;39.80;31.10;;;;;;;12.96;89.31;95584.25;5091892;28;20443;-73
2023/10/20 01:35:48;;;;;;;36.10;28.52;;;;;;;12.96;88.57;95570.72;5091071;28;20036;-71
2023/10/20 01:38:13;;;;;;;37.00;29.35;;;;;;;12.91;89.02;95560.09;5091721;28;20036;-71
2023/10/20 01:40:38;;;;;;;33.05;28.45;;;;;;;12.94;89.01;95559.47;5091222;28;20077;-71
2023/10/20 01:43:04;;;;;;;31.95;25.88;;;;;;;12.96;88.38;95562.63;5091574;28;20051;-72
2023/10/20 01:45:29;;;;;;;34.70;27.60;;;;;;;12.98;88.18;95569.28;5073715;28;20119;-71
2023/10/20 01:47:55;;;;;;;33.13;27.67;;;;;;;13.02;88.44;95567.53;5073380;28;20028;-71
2023/10/20 01:50:20;;;;;;;32.35;26.23;;;;;;;13.01;87.90;95554.34;5090971;28;20039;-72
2023/10/20 01:52:46;;;;;;;31.48;24.95;;;;;;;13.02;88.53;95550.53;5073529;28;20016;-71
2023/10/20 01:55:11;;;;;;;29.65;25.02;;;;;;;12.98;87.90;95541.47;5073572;28;20074;-71
2023/10/20 01:57:37;;;;;;;33.90;25.77;;;;;;;13.08;87.62;95549.28;5056840;28;20030;-71
2023/10/20 02:00:04;;;;;;;30.88;25.70;;;;;;;12.91;88.09;95516.88;5072729;28;20036;-72
2023/10/20 02:02:38;;;;;;;28.92;23.25;;;;;;;13.10;87.45;95541.63;5062538;28;20090;-71
2023/10/20 02:05:03;;;;;;;27.00;22.45;;;;;;;13.15;87.13;95533.34;5056588;28;20036;-70
2023/10/20 02:07:29;;;;;;;27.60;23.05;;;;;;;13.15;87.19;95525.22;5073477;28;20099;-70
2023/10/20 02:09:54;;;;;;;30.20;24.60;;;;;;;13.12;87.09;95534.78;5073149;28;20031;-70
2023/10/20 02:12:20;;;;;;;32.45;25.17;;;;;;;13.11;86.98;95524.31;5056151;28;20024;-71
2023/10/20 02:14:45;;;;;;;29.27;24.15;;;;;;;13.17;87.17;95531.09;5056662;28;20031;-71
2023/10/20 02:17:11;;;;;;;28.00;24.00;;;;;;;13.19;86.33;95534.25;5073403;28;20024;-72
2023/10/20 02:19:36;;;;;;;29.30;24.48;;;;;;;13.19;86.78;95523.47;5056821;28;20147;-70
2023/10/20 02:22:02;;;;;;;29.52;23.02;;;;;;;13.18;86.43;95519.19;5072734;28;20050;-70
2023/10/20 02:24:27;;;;;;;29.60;25.25;;;;;;;13.22;86.72;95528.22;5091287;28;20384;-71
2023/10/20 02:26:52;;;;;;;28.50;24.23;;;;;;;13.20;86.27;95535.88;4989307;28;20026;-70
2023/10/20 02:29:18;;;;;;;30.05;24.63;;;;;;;13.24;86.97;95536.78;5073242;28;20632;-70
2023/10/20 02:31:43;;;;;;;32.10;25.08;;;;;;;13.16;86.86;95518.72;5072572;28;20027;-70
2023/10/20 02:34:09;;;;;;;31.88;25.95;;;;;;;13.25;86.65;95527.56;5072864;28;20119;-72
2023/10/20 02:36:35;;;;;;;31.70;25.38;;;;;;;13.23;87.01;95527.13;5056017;28;20483;-70
2023/10/20 02:39:01;;;;;;;33.03;25.40;;;;;;;13.23;86.49;95529.81;5059233;28;20056;-70
2023/10/20 02:41:28;;;;;;;32.90;25.75;;;;;;;13.21;86.63;95531.25;5055555;28;20115;-70
2023/10/20 02:43:53;;;;;;;33.28;25.55;;;;;;;13.15;87.61;95534.13;5073010;28;20024;-71
2023/10/20 02:46:19;;;;;;;32.22;26.15;;;;;;;13.12;87.44;95523.97;5091452;28;20078;-70
2023/10/20 02:48:44;;;;;;;34.75;26.00;;;;;;;13.11;87.58;95500.78;5076792;28;20123;-70
2023/10/20 02:51:14;;;;;;;31.95;26.15;;;;;;;13.15;87.12;95507.13;5059360;28;20030;-71
2023/10/20 02:53:40;;;;;;;30.02;24.67;;;;;;;13.05;87.46;95490.44;5059874;28;20042;-71
2023/10/20 02:56:17;;;;;;;33.47;25.70;;;;;;;13.15;87.33;95495.50;5059630;28;20382;-71
2023/10/20 02:58:43;;;;;;;32.45;26.25;;;;;;;13.16;87.25;95487.06;5059980;28;20056;-70
2023/10/20 03:01:09;;;;;;;30.13;25.02;;;;;;;13.18;86.76;95478.66;5075929;28;20066;-71
2023/10/20 03:03:35;;;;;;;31.10;24.40;;;;;;;13.07;86.98;95450.41;5059554;28;20067;-70
2023/10/20 03:06:01;;;;;;;28.27;23.92;;;;;;;13.11;87.18;95452.16;5059575;28;20505;-71
2023/10/20 03:08:30;;;;;;;29.92;23.42;;;;;;;12.97;86.99;95423.75;5059620;28;20071;-70
2023/10/20 03:10:57;;;;;;;29.95;23.35;;;;;;;13.16;86.67;95443.06;5093965;28;20036;-71
2023/10/20 03:13:23;;;;;;;25.65;21.60;;;;;;;13.16;86.82;95429.53;5059506;28;20048;-71
2023/10/20 03:15:50;;;;;;;26.67;22.52;;;;;;;13.18;86.69;95430.00;5059667;28;20030;-71
2023/10/20 03:18:16;;;;;;;29.85;23.63;;;;;;;13.16;87.06;95413.34;5094364;28;20028;-70
2023/10/20 03:20:48;;;;;;;26.10;21.40;;;;;;;13.18;86.71;95413.78;5075695;28;20486;-72
2023/10/20 03:23:15;;;;;;;22.45;19.90;;;;;;;13.15;86.48;95400.94;5075935;28;20043;-72
2023/10/20 03:25:41;;;;;;;24.55;20.58;;;;;;;13.23;86.50;95410.91;5076270;28;20099;-71
2023/10/20 03:28:07;;;;;;;25.75;20.30;;;;;;;13.25;86.43;95397.84;5094219;28;20551;-71
2023/10/20 03:30:39;;;;;;;21.63;19.00;;;;;;;13.25;86.08;95387.03;5093698;28;20028;-70
2023/10/20 03:33:13;;;;;;;21.02;18.38;;;;;;;13.33;86.10;95383.47;5075852;28;20059;-70
2023/10/20 03:35:39;;;;;;;23.38;19.00;;;;;;;13.27;86.17;95365.06;5059468;28;20059;-71
2023/10/20 03:38:06;;;;;;;23.58;18.08;;;;;;;13.34;85.95;95382.34;5059225;28;20062;-71
2023/10/20 03:40:36;;;;;;;21.13;18.38;;;;;;;13.35;85.98;95373.09;5075314;28;20114;-71
2023/10/20 03:43:06;;;;;;;21.42;17.60;;;;;;;13.42;85.61;95359.06;5059541;28;20052;-71
2023/10/20 03:45:39;;;;;;;20.88;18.48;;;;;;;13.46;85.43;95349.97;5075762;28;20039;-70
2023/10/20 03:48:08;;;;;;;20.02;17.73;;;;;;;13.42;85.66;95349.03;5076296;28;20393;-71
2023/10/20 03:50:36;;;;;;;23.40;18.00;;;;;;;13.40;84.99;95332.34;5075503;28;20074;-72
2023/10/20 03:53:01;;;;;;;22.73;18.83;;;;;;;13.46;85.19;95349.16;5059143;28;20031;-71
2023/10/20 03:55:27;;;;;;;18.50;16.45;;;;;;;13.45;85.26;95339.47;5058813;28;20407;-72
2023/10/20 03:57:52;;;;;;;21.42;19.05;;;;;;;13.44;84.86;95340.59;5093096;28;20530;-71
2023/10/20 04:00:18;;;;;;;29.90;21.63;;;;;;;13.25;85.63;95316.75;5092571;28;20028;-72
2023/10/20 04:02:46;;;;;;;24.15;18.80;;;;;;;13.22;85.30;95317.41;5093340;28;20035;-72
2023/10/20 04:05:13;;;;;;;23.75;20.95;;;;;;;13.26;85.76;95321.03;5075308;28;20395;-72
2023/10/20 04:07:39;;;;;;;28.80;21.17;;;;;;;13.27;84.86;95302.91;5075371;28;20036;-70
2023/10/20 04:10:06;;;;;;;22.92;19.80;;;;;;;13.31;85.17;95304.63;5093287;28;20111;-72
2023/10/20 04:12:31;;;;;;;21.65;18.48;;;;;;;13.32;85.09;95287.28;5093336;28;20067;-74
2023/10/20 04:14:57;;;;;;;26.45;21.45;;;;;;;13.26;85.69;95277.00;5092995;28;20059;-73
2023/10/20 04:17:22;;;;;;;631.75;435.40;;;;;;;13.30;85.87;95281.44;5093241;28;20040;-74
2023/10/20 04:19:49;;;;;;;39.88;28.88;;;;;;;13.25;85.32;95273.53;5075133;28;20019;-73
2023/10/20 04:22:16;;;;;;;32.05;24.42;;;;;;;13.19;86.09;95269.44;5074675;28;20040;-73
2023/10/20 04:24:42;;;;;;;25.17;20.80;;;;;;;13.19;85.98;95269.44;5058377;28;20099;-72
2023/10/20 04:27:21;;;;;;;25.58;21.17;;;;;;;13.20;85.95;95272.94;5093009;28;20123;-73
2023/10/20 04:43:42;;;;;;;19.33;15.63;;;;;;;13.19;85.98;95231.59;5019738;28;20061;-72
2023/10/20 04:54:04;;;;;;;18.50;16.45;;;;;;;13.49;85.71;95207.94;5031122;28;20034;-69
2023/10/20 04:56:38;;;;;;;16.90;14.73;;;;;;;13.48;85.52;95207.13;5043220;28;20044;-71
2023/10/20 04:59:10;;;;;;;20.33;14.65;;;;;;;13.56;85.33;95200.81;5052240;28;20059;-70
2023/10/20 05:01:41;;;;;;;16.05;13.20;;;;;;;13.61;85.15;95206.00;5038811;28;20454;-71
2023/10/20 05:04:22;;;;;;;16.17;14.48;;;;;;;13.63;84.89;95194.84;5035097;28;20048;-70
2023/10/20 05:06:57;;;;;;;16.35;13.65;;;;;;;13.72;84.57;95201.72;5019829;28;20032;-70
2023/10/20 05:09:27;;;;;;;15.40;13.67;;;;;;;13.61;84.86;95187.09;5051561;28;20052;-71
2023/10/20 05:11:53;;;;;;;18.17;15.18;;;;;;;13.58;84.76;95173.47;5055687;28;20425;-70
2023/10/20 05:14:19;;;;;;;19.73;14.63;;;;;;;13.55;85.36;95174.94;5033929;28;20036;-72
2023/10/20 05:16:44;;;;;;;17.80;13.75;;;;;;;13.53;85.24;95171.78;5034721;28;20017;-71
2023/10/20 05:19:10;;;;;;;14.20;12.10;;;;;;;13.61;84.84;95156.53;5054185;28;20032;-70
2023/10/20 05:21:38;;;;;;;17.77;13.35;;;;;;;13.68;84.59;95152.16;5036769;28;20025;-70
2023/10/20 05:24:04;;;;;;;15.20;13.20;;;;;;;13.70;83.37;95160.72;5034351;28;20037;-73
2023/10/20 05:26:31;;;;;;;17.40;14.88;;;;;;;13.65;83.67;95147.41;5051252;28;20024;-71
2023/10/20 05:28:56;;;;;;;16.65;14.43;;;;;;;13.64;83.61;95162.09;5017606;28;20052;-72
2023/10/20 05:31:24;;;;;;;18.92;13.98;;;;;;;13.67;83.86;95158.72;5051168;28;20048;-69
2023/10/20 05:33:50;;;;;;;15.82;14.13;;;;;;;13.63;83.89;95148.88;5033909;28;20033;-72
2023/10/20 05:36:15;;;;;;;15.75;13.32;;;;;;;13.62;83.65;95131.88;5051257;28;20122;-72
2023/10/20 05:38:40;;;;;;;15.52;13.55;;;;;;;13.70;83.06;95141.00;5051503;28;20094;-72
2023/10/20 05:41:06;;;;;;;19.02;16.80;;;;;;;13.77;82.73;95144.72;5051204;28;20064;-69
2023/10/20 05:43:31;;;;;;;21.52;17.90;;;;;;;13.71;83.20;95137.97;5051301;28;20032;-70
2023/10/20 05:45:57;;;;;;;29.08;22.60;;;;;;;13.65;83.36;95155.53;5033665;28;20040;-70
2023/10/20 05:48:22;;;;;;;33.03;26.05;;;;;;;13.65;83.10;95130.44;5051560;28;20124;-69
2023/10/20 05:50:54;;;;;;;42.10;28.65;;;;;;;13.63;82.97;95117.22;5033102;28;20025;-70
2023/10/20 05:53:19;;;;;;;27.52;21.17;;;;;;;13.68;83.02;95135.94;5033068;28;20059;-70
2023/10/20 05:55:45;;;;;;;46.65;29.30;;;;;;;13.64;83.23;95135.03;5051207;28;20064;-70
2023/10/20 05:58:10;;;;;;;23.88;18.23;;;;;;;13.58;83.22;95141.03;5051420;28;20037;-70
2023/10/20 06:00:36;;;;;;;21.80;17.38;;;;;;;13.56;82.58;95114.28;5016444;28;20033;-70
2023/10/20 06:03:03;;;;;;;54.50;37.25;;;;;;;13.64;83.17;95129.63;5062549;28;20044;-71
2023/10/20 06:05:28;;;;;;;36.53;26.42;;;;;;;13.70;82.68;95138.28;5071326;28;20565;-70
2023/10/20 06:07:55;;;;;;;48.50;35.30;;;;;;;13.61;82.79;95137.63;5071217;28;20033;-70
2023/10/20 06:10:23;;;;;;;21.33;16.27;;;;;;;13.56;82.52;95118.94;5052948;28;20056;-70
2023/10/20 06:12:53;;;;;;;17.42;15.55;;;;;;;13.68;82.39;95127.81;5071172;28;20032;-71
2023/10/20 06:15:19;;;;;;;18.02;15.55;;;;;;;13.47;82.51;95123.63;5053237;28;20084;-70
2023/10/20 06:17:45;;;;;;;19.55;17.52;;;;;;;13.69;81.86;95121.28;5040866;28;20194;-70
2023/10/20 06:20:11;;;;;;;19.85;17.08;;;;;;;13.64;82.33;95113.41;5056118;28;20491;-71
2023/10/20 06:22:36;;;;;;;21.65;17.58;;;;;;;13.62;82.18;95121.06;5036269;28;20017;-71
2023/10/20 06:25:10;;;;;;;26.42;21.30;;;;;;;13.62;82.54;95109.47;5037527;28;20077;-70
2023/10/20 06:27:35;;;;;;;23.85;19.35;;;;;;;13.57;82.73;95101.56;5038164;28;20132;-71
2023/10/20 06:30:22;;;;;;;22.65;19.02;;;;;;;13.50;82.77;95095.94;5056540;28;20112;-72
2023/10/20 06:32:51;;;;;;;25.85;21.50;;;;;;;13.45;82.92;95078.03;5056270;28;20079;-70
2023/10/20 06:35:17;;;;;;;24.77;21.10;;;;;;;13.38;83.94;95067.00;5030723;28;20089;-71
2023/10/20 06:38:11;;;;;;;24.23;19.77;;;;;;;13.35;83.58;95062.25;5032911;28;20025;-71
2023/10/20 06:40:38;;;;;;;22.23;19.05;;;;;;;13.42;83.47;95062.47;5053125;28;20037;-71
2023/10/20 06:43:04;;;;;;;23.33;19.05;;;;;;;13.46;83.90;95049.88;5037760;28;20041;-72
2023/10/20 06:45:31;;;;;;;22.50;19.05;;;;;;;13.42;84.01;95040.09;5034107;28;20036;-71
2023/10/20 06:47:57;;;;;;;22.83;18.90;;;;;;;13.51;83.63;95033.41;5057162;28;20075;-72
2023/10/20 06:50:23;;;;;;;22.58;18.45;;;;;;;13.53;83.56;95012.25;5060132;28;20508;-72
2023/10/20 06:52:48;;;;;;;21.67;17.70;;;;;;;13.54;84.05;94999.50;5054452;28;20032;-71
2023/10/20 06:55:13;;;;;;;21.85;17.75;;;;;;;13.40;83.97;94993.66;5054481;28;20408;-71
2023/10/20 06:57:39;;;;;;;21.42;17.42;;;;;;;13.61;84.02;95000.50;5020180;28;20028;-71
2023/10/20 07:00:06;;;;;;;21.33;17.90;;;;;;;13.58;84.27;95000.41;5053976;28;20059;-72
2023/10/20 07:02:32;;;;;;;20.75;18.08;;;;;;;13.54;84.29;94994.88;5037167;28;20025;-72
2023/10/20 07:04:57;;;;;;;22.50;19.10;;;;;;;13.46;84.26;94981.50;5031561;28;20519;-71
2023/10/20 07:07:23;;;;;;;23.77;19.45;;;;;;;13.45;84.98;94990.72;5036397;28;20024;-71
2023/10/20 07:09:48;;;;;;;23.65;18.95;;;;;;;13.49;84.84;94970.78;5035536;28;20061;-70
2023/10/20 07:12:15;;;;;;;23.08;19.83;;;;;;;13.24;85.32;94931.44;5029151;28;20644;-72
2023/10/20 07:14:43;;;;;;;23.45;20.27;;;;;;;13.42;85.74;94962.47;5005272;28;20039;-71
2023/10/20 07:17:08;;;;;;;24.75;20.52;;;;;;;13.48;85.22;94953.00;5029447;28;20110;-71
2023/10/20 07:19:34;;;;;;;22.40;19.90;;;;;;;13.53;84.55;94944.66;5013825;28;20119;-71
2023/10/20 07:22:00;;;;;;;18.98;15.88;;;;;;;13.40;85.44;94935.00;5031919;28;20087;-70
2023/10/20 07:24:26;;;;;;;19.13;16.30;;;;;;;13.56;84.91;94930.44;5031155;28;20114;-71
2023/10/20 07:26:52;;;;;;;21.00;17.05;;;;;;;13.59;85.08;94921.66;5003171;28;20107;-71
2023/10/20 07:29:18;;;;;;;18.15;15.45;;;;;;;13.63;85.54;94922.53;5008487;28;20480;-71
2023/10/20 07:31:45;;;;;;;15.80;13.45;;;;;;;13.68;85.00;94914.19;5033719;28;20017;-71
2023/10/20 07:34:11;;;;;;;19.27;15.55;;;;;;;13.71;85.46;94891.06;5010398;28;20080;-72
2023/10/20 07:36:37;;;;;;;16.63;14.73;;;;;;;13.72;85.64;94888.00;5034590;28;20108;-71
2023/10/20 07:39:03;;;;;;;18.05;14.95;;;;;;;13.74;85.76;94877.66;5040472;28;20032;-70
2023/10/20 07:41:28;;;;;;;19.98;16.48;;;;;;;13.72;85.89;94865.63;5033957;28;20079;-71
2023/10/20 07:43:54;;;;;;;18.15;15.90;;;;;;;13.74;86.21;94847.91;5024250;28;20435;-71
2023/10/20 07:46:21;;;;;;;22.85;17.75;;;;;;;13.64;86.17;94832.19;5057466;28;20029;-72
2023/10/20 07:48:46;;;;;;;25.52;19.58;;;;;;;13.56;86.37;94813.41;5053160;28;20049;-71
2023/10/20 07:51:12;;;;;;;23.27;17.98;;;;;;;13.58;86.80;94825.44;5035216;28;20029;-71
2023/10/20 07:53:37;;;;;;;22.70;19.10;;;;;;;13.57;86.79;94815.75;5035236;28;20068;-71
2023/10/20 07:56:03;;;;;;;21.17;18.23;;;;;;;13.59;86.69;94813.50;5010758;28;20031;-71
2023/10/20 07:58:28;;;;;;;17.80;15.07;;;;;;;13.56;86.97;94814.19;5016024;28;20456;-74
2023/10/20 08:00:54;;;;;;;20.13;16.30;;;;;;;13.73;87.28;94832.00;5032971;28;20095;-74
2023/10/20 08:03:19;;;;;;;20.58;17.45;;;;;;;13.74;87.13;94815.47;5009662;28;20030;-72
2023/10/20 08:05:45;;;;;;;24.10;20.20;;;;;;;13.86;86.94;94809.97;5028703;28;20070;-73
2023/10/20 08:08:10;;;;;;;23.77;18.88;;;;;;;13.82;87.72;94821.81;5024688;28;20042;-73
2023/10/20 08:10:37;;;;;;;28.48;22.30;;;;;;;13.82;88.12;94814.50;5031145;28;20554;-74
2023/10/20 08:13:02;;;;;;;24.25;18.95;;;;;;;13.93;88.34;94803.16;5027177;28;20038;-70
2023/10/20 08:15:28;;;;;;;21.85;18.55;;;;;;;13.88;88.57;94799.56;4991308;28;20022;-70
2023/10/20 08:17:57;;;;;;;18.23;14.88;;;;;;;13.99;88.45;94796.34;5009921;28;20037;-72
2023/10/20 08:20:22;;;;;;;14.90;13.07;;;;;;;13.99;87.71;94799.06;5006689;28;20889;-67
2023/10/20 08:22:47;;;;;;;20.63;16.05;;;;;;;14.07;87.07;94792.72;5034381;28;20027;-74
2023/10/20 08:25:14;;;;;;;17.95;16.00;;;;;;;14.15;87.26;94797.94;5032854;28;20381;-69
2023/10/20 08:27:39;;;;;;;16.67;14.88;;;;;;;14.13;86.95;94799.41;5026850;28;20039;-70
2023/10/20 08:30:05;;;;;;;19.00;16.40;;;;;;;14.10;87.30;94786.56;5020915;28;20057;-72
2023/10/20 08:32:31;;;;;;;23.50;18.02;;;;;;;14.21;87.05;94791.09;5004953;28;20123;-74
2023/10/20 08:34:57;;;;;;;17.33;14.52;;;;;;;14.32;87.30;94796.81;5031852;28;20112;-75
2023/10/20 08:37:22;;;;;;;17.08;14.07;;;;;;;14.25;86.60;94772.25;5016850;28;20097;-70
2023/10/20 08:39:48;;;;;;;19.90;16.10;;;;;;;14.43;85.85;94776.19;5028091;28;20032;-69
2023/10/20 08:42:17;;;;;;;17.17;15.38;;;;;;;14.38;86.50;94779.94;5015409;28;20018;-71
2023/10/20 08:44:43;;;;;;;18.73;16.75;;;;;;;14.27;85.22;94786.22;5031513;28;20027;-71
2023/10/20 08:47:11;;;;;;;18.10;16.20;;;;;;;14.29;85.06;94781.25;5035291;28;20072;-71
2023/10/20 08:49:38;;;;;;;19.38;17.10;;;;;;;14.37;85.23;94788.44;5031770;28;20022;-71
2023/10/20 08:52:07;;;;;;;19.80;16.23;;;;;;;14.20;85.76;94789.56;5039804;28;20021;-71
2023/10/20 08:54:33;;;;;;;22.98;18.02;;;;;;;14.17;85.91;94770.50;5006859;28;20113;-71
2023/10/20 08:56:58;;;;;;;22.17;17.92;;;;;;;14.18;86.42;94782.91;5026681;28;20090;-71
2023/10/20 08:59:24;;;;;;;20.88;18.65;;;;;;;14.23;85.82;94771.84;5015377;28;20013;-75
2023/10/20 09:01:51;;;;;;;20.10;17.63;;;;;;;14.41;85.59;94775.75;5026655;28;20059;-72
2023/10/20 09:04:24;;;;;;;22.50;19.23;;;;;;;14.41;86.07;94778.47;5020935;28;20049;-72
2023/10/20 09:06:50;;;;;;;20.67;18.02;;;;;;;14.32;86.55;94775.16;5036505;28;20376;-71
2023/10/20 09:09:16;;;;;;;19.67;17.48;;;;;;;14.37;86.55;94788.44;5012026;28;20024;-71
2023/10/20 09:11:41;;;;;;;21.27;17.33;;;;;;;14.42;86.80;94790.88;5027182;28;20039;-71
2023/10/20 09:14:07;;;;;;;19.00;16.77;;;;;;;14.38;86.79;94795.41;5012322;28;20100;-72
2023/10/20 09:16:36;;;;;;;20.17;17.63;;;;;;;14.51;86.11;94810.44;5027545;28;20098;-72
2023/10/20 09:19:03;;;;;;;19.45;17.35;;;;;;;14.54;86.36;94817.81;5014231;28;20044;-72
2023/10/20 09:21:29;;;;;;;18.55;15.93;;;;;;;14.55;85.86;94811.28;5010786;28;20116;-72
2023/10/20 09:24:03;;;;;;;18.45;16.58;;;;;;;14.58;85.68;94810.59;5034452;28;20049;-72
2023/10/20 09:26:31;;;;;;;17.25;15.40;;;;;;;14.64;85.65;94817.28;5027921;28;20037;-72
2023/10/20 09:28:57;;;;;;;18.33;15.88;;;;;;;14.50;84.66;94798.00;5053982;28;20098;-72
2023/10/20 09:31:24;;;;;;;17.45;15.57;;;;;;;14.74;84.53;94816.75;5020619;28;20063;-72
2023/10/20 09:33:49;;;;;;;17.38;15.57;;;;;;;14.74;84.17;94811.34;5011972;28;20037;-72
2023/10/20 09:36:16;;;;;;;17.45;15.55;;;;;;;14.70;84.26;94823.25;5032243;28;20037;-72
2023/10/20 09:38:50;;;;;;;18.88;16.88;;;;;;;14.81;83.46;94814.22;5030672;28;20055;-71
2023/10/20 09:41:17;;;;;;;19.73;16.45;;;;;;;14.85;83.62;94820.47;5015305;28;20518;-71
2023/10/20 09:44:05;;;;;;;17.30;15.32;;;;;;;14.84;83.53;94813.47;5030674;28;20061;-72
2023/10/20 09:46:46;;;;;;;20.38;17.92;;;;;;;14.76;83.14;94800.94;5025108;28;20046;-72
2023/10/20 09:49:19;;;;;;;20.10;17.88;;;;;;;14.83;83.19;94809.22;5027437;28;20047;-71
2023/10/20 09:51:47;;;;;;;19.33;16.13;;;;;;;14.91;82.85;94812.88;5008184;28;20040;-72
2023/10/20 09:54:18;;;;;;;19.40;16.83;;;;;;;14.94;82.85;94804.81;5019017;28;20019;-71
2023/10/20 09:56:45;;;;;;;18.50;16.30;;;;;;;15.04;82.45;94823.22;5009785;28;20056;-72
2023/10/20 09:59:21;;;;;;;17.75;15.85;;;;;;;15.09;81.90;94814.81;5023237;28;20024;-71
2023/10/20 10:01:47;;;;;;;18.73;14.90;;;;;;;15.26;81.49;94807.41;5012072;28;20033;-71
2023/10/20 10:04:13;;;;;;;17.33;15.45;;;;;;;15.23;81.62;94815.13;5031818;28;20030;-71
2023/10/20 10:06:38;;;;;;;18.25;15.82;;;;;;;15.23;81.56;94815.13;5031686;28;20484;-72
2023/10/20 10:09:04;;;;;;;17.20;15.40;;;;;;;15.41;80.65;94792.97;5049414;28;20032;-71
2023/10/20 10:11:34;;;;;;;17.45;15.60;;;;;;;15.47;80.60;94797.81;5030943;28;20032;-72
2023/10/20 10:14:01;;;;;;;17.67;15.63;;;;;;;15.37;81.05;94782.09;5033044;28;20433;-71
2023/10/20 10:16:27;;;;;;;17.15;15.27;;;;;;;15.40;80.76;94780.59;5017032;28;20043;-71
2023/10/20 10:18:54;;;;;;;17.95;16.05;;;;;;;15.43;80.89;94794.19;5032934;28;20025;-72
2023/10/20 10:21:24;;;;;;;19.20;16.25;;;;;;;15.43;80.60;94796.13;5033127;28;20029;-72
2023/10/20 10:24:18;;;;;;;16.48;14.57;;;;;;;15.42;80.24;94783.72;5033277;28;20044;-71
2023/10/20 10:26:59;;;;;;;16.02;14.32;;;;;;;15.40;79.92;94769.75;5016565;28;20043;-71
2023/10/20 10:29:48;;;;;;;15.73;14.02;;;;;;;15.54;79.25;94764.63;5031771;28;20522;-72
2023/10/20 10:32:14;;;;;;;18.27;13.60;;;;;;;15.62;79.13;94766.28;5015734;28;20045;-71
2023/10/20 10:34:44;;;;;;;14.52;12.73;;;;;;;15.58;78.79;94746.47;5032337;28;20029;-72
2023/10/20 10:37:10;;;;;;;13.98;12.57;;;;;;;15.61;78.60;94764.75;5044968;28;20119;-72
2023/10/20 10:39:36;;;;;;;14.27;12.07;;;;;;;15.78;78.28;94766.97;5050975;28;20151;-72
2023/10/20 10:42:03;;;;;;;13.68;12.15;;;;;;;15.72;77.77;94749.44;5032354;28;20036;-72
2023/10/20 10:44:36;;;;;;;12.70;11.40;;;;;;;15.86;77.49;94772.19;5046460;28;20082;-71
2023/10/20 10:47:05;;;;;;;14.10;11.98;;;;;;;15.85;77.86;94770.59;5045488;28;20035;-72
2023/10/20 10:49:31;;;;;;;13.85;12.35;;;;;;;15.79;77.04;94790.25;5016990;28;20017;-72
2023/10/20 10:51:58;;;;;;;15.05;13.43;;;;;;;15.78;77.02;94775.13;5031934;28;20592;-72
2023/10/20 10:54:24;;;;;;;14.05;12.55;;;;;;;15.79;77.42;94787.56;5031399;28;20040;-71
2023/10/20 10:56:50;;;;;;;13.73;12.25;;;;;;;15.78;77.25;94789.47;5031671;28;20037;-72
2023/10/20 10:59:15;;;;;;;14.63;13.13;;;;;;;15.67;77.40;94793.91;5032900;28;20095;-72
2023/10/20 11:01:41;;;;;;;15.52;13.93;;;;;;;15.60;77.38;94774.00;5032274;28;20045;-72
2023/10/20 11:04:08;;;;;;;15.02;13.45;;;;;;;15.64;77.35;94800.06;5033024;28;20025;-72
2023/10/20 11:06:37;;;;;;;14.68;13.18;;;;;;;15.62;77.20;94823.25;5032875;28;20048;-72
2023/10/20 11:09:05;;;;;;;15.45;13.25;;;;;;;15.69;77.39;94820.69;5036115;28;20028;-72
2023/10/20 11:11:31;;;;;;;15.98;14.05;;;;;;;15.80;76.95;94862.38;5053606;28;20094;-72
2023/10/20 11:13:57;;;;;;;16.92;15.13;;;;;;;15.86;76.74;94858.22;5036448;28;20029;-71
2023/10/20 11:16:23;;;;;;;17.30;15.48;;;;;;;15.92;76.61;94864.91;5036008;28;20053;-72
2023/10/20 11:18:48;;;;;;;18.08;16.15;;;;;;;15.88;76.69;94848.59;5019760;28;20035;-72
2023/10/20 11:21:14;;;;;;;18.50;15.77;;;;;;;15.95;76.84;94871.56;5018958;28;20029;-72
2023/10/20 11:23:39;;;;;;;19.65;16.52;;;;;;;15.89;76.58;94852.09;5042349;28;20066;-71
2023/10/20 11:26:17;;;;;;;18.02;16.17;;;;;;;15.98;76.82;94876.28;5055756;28;20132;-72
2023/10/20 11:28:45;;;;;;;18.27;16.27;;;;;;;16.08;76.92;94871.03;5056114;28;20043;-72
2023/10/20 11:31:11;;;;;;;17.75;15.50;;;;;;;16.21;76.87;94880.59;5072192;28;20029;-72
2023/10/20 11:33:37;;;;;;;17.38;15.02;;;;;;;16.38;76.29;94880.09;5054043;28;20040;-72
2023/10/20 11:36:04;;;;;;;17.63;15.73;;;;;;;16.43;75.93;94868.94;5055614;28;20056;-72
2023/10/20 11:38:30;;;;;;;17.10;14.88;;;;;;;16.62;75.91;94875.50;5037524;28;20028;-72